Time;durP1;ratioP1;P1;durP2;ratioP2;P2;SDS_P1;SDS_P2;PMS_P1;PMS_P2;Temp;Humidity;BMP_temperature;BMP_pressure;BME280_temperature;BME280_humidity;BME280_pressure;Samples;Min_cycle;Max_cycle;Signal;HPM_P1;HPM_P2
2023/02/07 00:01:25;;;;;;;33.00;18.50;;;4.10;99.90;;;;;;5006659;28;20307;-69
2023/02/07 00:03:51;;;;;;;32.63;15.67;;;4.10;99.90;;;;;;5003145;28;20517;-71
2023/02/07 00:06:24;;;;;;;27.83;16.50;;;4.00;99.90;;;;;;5001734;28;20198;-71
2023/02/07 00:08:50;;;;;;;34.90;17.27;;;3.90;99.90;;;;;;5001736;28;20430;-69
2023/02/07 00:11:18;;;;;;;29.07;17.87;;;3.80;99.90;;;;;;4998812;28;20542;-70
2023/02/07 00:13:46;;;;;;;28.27;16.47;;;3.70;99.90;;;;;;5004516;28;20433;-69
2023/02/07 00:16:12;;;;;;;31.13;17.73;;;3.70;99.90;;;;;;5008784;28;20449;-72
2023/02/07 00:18:38;;;;;;;28.50;15.10;;;3.70;99.90;;;;;;5009940;28;20805;-72
2023/02/07 00:21:06;;;;;;;29.67;15.83;;;3.70;99.90;;;;;;4999194;28;20447;-72
2023/02/07 00:23:33;;;;;;;35.93;15.83;;;3.70;99.90;;;;;;4994547;28;20842;-72
2023/02/07 00:25:59;;;;;;;33.17;15.47;;;3.70;99.90;;;;;;4996065;28;20792;-71
2023/02/07 00:28:25;;;;;;;31.83;17.90;;;3.60;99.90;;;;;;4995982;28;20438;-71
2023/02/07 00:31:00;;;;;;;24.77;14.43;;;3.60;99.90;;;;;;4997374;28;20485;-72
2023/02/07 00:33:25;;;;;;;20.53;14.50;;;3.60;99.90;;;;;;4998740;28;20179;-72
2023/02/07 00:35:59;;;;;;;29.33;16.40;;;3.60;99.90;;;;;;4998399;28;20569;-72
2023/02/07 00:38:26;;;;;;;21.83;14.10;;;3.60;99.90;;;;;;5002470;28;20181;-72
2023/02/07 00:40:51;;;;;;;25.30;14.97;;;3.60;99.90;;;;;;5005263;28;20485;-72
2023/02/07 00:43:17;;;;;;;21.70;14.07;;;3.70;99.90;;;;;;5010666;28;20440;-72
2023/02/07 00:45:42;;;;;;;36.90;15.80;;;3.60;99.90;;;;;;5015212;28;20534;-71
2023/02/07 00:48:07;;;;;;;33.97;16.20;;;3.70;99.90;;;;;;5016129;28;20187;-72
2023/02/07 00:50:33;;;;;;;24.10;13.70;;;3.60;99.90;;;;;;5014611;28;20186;-72
2023/02/07 00:52:59;;;;;;;27.73;14.90;;;3.60;99.90;;;;;;5013024;28;20675;-72
2023/02/07 00:55:24;;;;;;;29.27;15.03;;;3.60;99.90;;;;;;5010923;28;20210;-72
2023/02/07 00:57:50;;;;;;;29.47;14.20;;;3.60;99.90;;;;;;5009228;28;20181;-72
2023/02/07 01:00:15;;;;;;;20.37;12.70;;;3.50;99.90;;;;;;5007592;28;20185;-72
2023/02/07 01:02:41;;;;;;;25.63;13.13;;;3.60;99.90;;;;;;5005438;28;20189;-72
2023/02/07 01:05:07;;;;;;;18.20;11.70;;;3.50;99.90;;;;;;5008930;28;20666;-72
2023/02/07 01:07:33;;;;;;;20.80;11.83;;;3.40;99.90;;;;;;5010487;28;20642;-73
2023/02/07 01:09:58;;;;;;;17.23;11.80;;;3.50;99.90;;;;;;5007668;28;20192;-72
2023/02/07 01:12:24;;;;;;;23.20;12.53;;;3.50;99.90;;;;;;4998422;28;20925;-72
2023/02/07 01:14:50;;;;;;;16.53;10.87;;;3.50;99.90;;;;;;5008991;28;20207;-72
2023/02/07 01:17:15;;;;;;;23.27;11.80;;;3.40;99.90;;;;;;5013327;28;20584;-72
2023/02/07 01:19:41;;;;;;;19.10;11.47;;;3.30;99.90;;;;;;5012769;28;20266;-72
2023/02/07 01:22:06;;;;;;;25.80;12.40;;;3.20;99.90;;;;;;5011145;28;20540;-71
2023/02/07 01:24:34;;;;;;;22.93;12.13;;;3.10;99.90;;;;;;5002851;28;20181;-72
2023/02/07 01:26:59;;;;;;;21.07;12.73;;;3.10;99.90;;;;;;5004563;28;20194;-71
2023/02/07 01:29:25;;;;;;;18.63;13.73;;;3.20;99.90;;;;;;5006145;28;20795;-70
2023/02/07 01:31:51;;;;;;;24.27;11.63;;;3.20;99.90;;;;;;5005853;28;20301;-71
2023/02/07 01:34:16;;;;;;;20.87;11.67;;;3.20;99.90;;;;;;5001915;28;20218;-71
2023/02/07 01:36:42;;;;;;;19.53;13.10;;;3.20;99.90;;;;;;5000175;28;20178;-71
2023/02/07 01:39:08;;;;;;;26.27;12.30;;;3.10;99.90;;;;;;4998506;28;20187;-71
2023/02/07 01:41:34;;;;;;;25.90;13.47;;;3.10;99.90;;;;;;4996754;28;20191;-71
2023/02/07 01:44:00;;;;;;;20.93;11.27;;;3.00;99.90;;;;;;4997115;28;20595;-71
2023/02/07 01:46:28;;;;;;;15.40;10.27;;;3.00;99.90;;;;;;4998735;28;20428;-71
2023/02/07 01:48:57;;;;;;;23.50;11.27;;;3.10;99.90;;;;;;5000206;28;20542;-71
2023/02/07 01:51:24;;;;;;;20.13;11.60;;;3.20;99.90;;;;;;5008529;28;20472;-71
2023/02/07 01:53:52;;;;;;;20.47;11.93;;;3.20;99.90;;;;;;5006830;28;20957;-72
2023/02/07 01:56:18;;;;;;;22.23;12.43;;;3.20;99.90;;;;;;5005089;28;20464;-71
2023/02/07 01:58:43;;;;;;;17.07;11.10;;;3.10;99.90;;;;;;5004018;28;20794;-70
2023/02/07 02:01:16;;;;;;;16.87;10.80;;;3.00;99.90;;;;;;5002366;28;20184;-71
2023/02/07 02:03:44;;;;;;;18.47;10.13;;;2.90;99.90;;;;;;5010229;28;20186;-72
2023/02/07 02:06:12;;;;;;;18.97;11.60;;;2.90;99.90;;;;;;4995613;28;20525;-71
2023/02/07 02:08:38;;;;;;;18.70;10.70;;;2.80;99.90;;;;;;4996397;28;20510;-71
2023/02/07 02:11:30;;;;;;;19.30;11.33;;;2.80;99.90;;;;;;4996408;28;20530;-72
2023/02/07 02:14:04;;;;;;;19.53;11.73;;;2.70;99.90;;;;;;4995797;28;20201;-71
2023/02/07 02:16:39;;;;;;;18.83;11.10;;;2.70;99.90;;;;;;4999994;28;20448;-71
2023/02/07 02:19:32;;;;;;;16.53;9.63;;;2.80;99.90;;;;;;5007916;28;20444;-71
2023/02/07 02:22:19;;;;;;;15.10;9.60;;;2.70;99.90;;;;;;5005915;28;20465;-71
2023/02/07 02:25:10;;;;;;;17.87;10.43;;;2.70;99.90;;;;;;5004103;28;20431;-71
2023/02/07 02:27:57;;;;;;;14.40;9.93;;;2.70;99.90;;;;;;4999938;28;20449;-71
2023/02/07 02:30:40;;;;;;;21.90;13.37;;;2.70;99.90;;;;;;5009084;28;20439;-71
2023/02/07 02:33:12;;;;;;;18.47;10.90;;;2.70;99.90;;;;;;5011786;28;20431;-71
2023/02/07 02:35:54;;;;;;;16.93;11.13;;;2.70;99.90;;;;;;5013247;28;20482;-71
2023/02/07 02:38:38;;;;;;;19.17;11.03;;;2.60;99.90;;;;;;4997023;28;20968;-71
2023/02/07 02:41:06;;;;;;;18.90;10.27;;;2.60;99.90;;;;;;4997490;28;20775;-71
2023/02/07 02:43:46;;;;;;;19.90;11.60;;;2.60;99.90;;;;;;4999536;28;20434;-72
2023/02/07 02:46:24;;;;;;;24.83;12.40;;;2.60;99.90;;;;;;5007520;28;20440;-71
2023/02/07 02:48:51;;;;;;;16.40;10.67;;;2.60;99.90;;;;;;5001826;28;20441;-71
2023/02/07 02:51:17;;;;;;;20.03;12.33;;;2.60;99.90;;;;;;5004600;28;20460;-72
2023/02/07 02:53:56;;;;;;;23.43;13.43;;;2.60;99.90;;;;;;5006594;28;20437;-72
2023/02/07 02:56:28;;;;;;;22.80;12.67;;;2.60;99.90;;;;;;5008363;28;20209;-71
2023/02/07 02:59:11;;;;;;;19.07;11.40;;;2.60;99.90;;;;;;5009500;28;20788;-71
2023/02/07 03:02:08;;;;;;;28.03;13.97;;;2.50;99.90;;;;;;4996098;28;20442;-71
2023/02/07 03:04:47;;;;;;;20.90;11.60;;;2.40;99.90;;;;;;4995080;28;20816;-71
2023/02/07 03:07:39;;;;;;;21.23;11.50;;;2.40;99.90;;;;;;4996205;28;20511;-71
2023/02/07 03:10:38;;;;;;;24.97;12.10;;;2.40;99.90;;;;;;4987833;28;20473;-71
2023/02/07 03:13:20;;;;;;;22.33;14.40;;;2.30;99.90;;;;;;4999178;28;20497;-72
2023/02/07 03:15:57;;;;;;;23.17;12.57;;;2.30;99.90;;;;;;5005486;28;20567;-72
2023/02/07 03:18:38;;;;;;;22.27;12.90;;;2.30;99.90;;;;;;5003419;28;20473;-72
2023/02/07 03:21:27;;;;;;;24.63;14.80;;;2.20;99.90;;;;;;5001640;28;20532;-71
2023/02/07 03:23:56;;;;;;;24.63;14.67;;;2.20;99.90;;;;;;4989357;28;20481;-72
2023/02/07 03:26:23;;;;;;;25.17;12.60;;;2.10;99.90;;;;;;4998111;28;20442;-71
2023/02/07 03:28:51;;;;;;;18.63;12.80;;;2.10;99.90;;;;;;5008005;28;20481;-71
2023/02/07 03:31:20;;;;;;;22.37;12.43;;;2.00;99.90;;;;;;5012746;28;20474;-72
2023/02/07 03:33:48;;;;;;;20.17;12.67;;;2.00;99.90;;;;;;5012040;28;20419;-72
2023/02/07 03:36:28;;;;;;;24.10;12.07;;;2.00;99.90;;;;;;5010429;28;20459;-72
2023/02/07 03:38:54;;;;;;;20.33;11.20;;;2.00;99.90;;;;;;5008458;28;20444;-71
2023/02/07 05:30:18;;;;;;;16.60;8.90;;;2.00;99.90;;;;;;6063387;23;20424;-69
2023/02/07 05:33:02;;;;;;;24.50;10.80;;;2.00;99.90;;;;;;5004835;28;20516;-68
2023/02/07 05:35:39;;;;;;;17.80;9.70;;;2.00;99.90;;;;;;5006282;28;20486;-68
2023/02/07 05:38:07;;;;;;;17.97;10.80;;;2.00;99.90;;;;;;5002958;28;20479;-71
2023/02/07 05:40:35;;;;;;;14.90;10.10;;;2.00;99.90;;;;;;5001193;28;20437;-72
2023/02/07 05:43:01;;;;;;;14.77;10.00;;;2.00;99.90;;;;;;4999107;28;21030;-70
2023/02/07 05:45:26;;;;;;;15.07;9.50;;;1.90;99.90;;;;;;5011835;28;20469;-70
2023/02/07 05:47:52;;;;;;;16.87;9.23;;;1.90;99.90;;;;;;4997727;28;20763;-72
2023/02/07 05:50:18;;;;;;;15.63;9.73;;;1.90;99.90;;;;;;4992344;28;20190;-72
2023/02/07 05:52:43;;;;;;;16.90;10.80;;;1.90;99.90;;;;;;4976854;28;20189;-74
2023/02/07 05:55:11;;;;;;;19.07;9.73;;;1.90;99.90;;;;;;4974678;28;21264;-74
2023/02/07 05:57:40;;;;;;;15.17;9.30;;;1.90;99.90;;;;;;4977582;28;20637;-72
2023/02/07 06:00:09;;;;;;;14.93;9.03;;;1.90;99.90;;;;;;4978295;28;20453;-72
2023/02/07 06:02:34;;;;;;;19.40;9.67;;;1.90;99.90;;;;;;4993378;28;20423;-71
2023/02/07 06:05:00;;;;;;;17.00;10.27;;;1.90;99.90;;;;;;5004369;28;20434;-72
2023/02/07 06:07:25;;;;;;;16.23;9.90;;;1.80;99.90;;;;;;5000426;28;20177;-72
2023/02/07 06:09:51;;;;;;;18.53;10.67;;;1.80;99.90;;;;;;5002181;28;20225;-72
2023/02/07 06:12:16;;;;;;;22.67;10.00;;;1.80;99.90;;;;;;5011108;28;20242;-72
2023/02/07 06:14:42;;;;;;;14.67;10.10;;;1.80;99.90;;;;;;4992427;28;20246;-73
2023/02/07 06:17:08;;;;;;;19.07;9.73;;;1.80;99.90;;;;;;4993260;28;20178;-72
2023/02/07 06:19:33;;;;;;;20.50;11.30;;;1.60;99.90;;;;;;4995982;28;20221;-72
2023/02/07 06:21:59;;;;;;;14.63;9.53;;;1.60;99.90;;;;;;4997422;28;20181;-72
2023/02/07 06:24:24;;;;;;;13.50;10.00;;;1.50;99.90;;;;;;5000722;28;20182;-72
2023/02/07 06:26:50;;;;;;;16.60;9.00;;;1.50;99.90;;;;;;5005789;28;20262;-72
2023/02/07 06:29:16;;;;;;;20.17;11.70;;;1.50;99.90;;;;;;5002758;28;20178;-72
2023/02/07 06:31:41;;;;;;;17.90;9.97;;;1.50;99.90;;;;;;5004534;28;20225;-72
2023/02/07 06:34:07;;;;;;;15.30;9.20;;;1.50;99.90;;;;;;5002134;28;20217;-72
2023/02/07 06:36:32;;;;;;;12.37;9.13;;;1.40;99.90;;;;;;4998385;28;20196;-72
2023/02/07 06:38:58;;;;;;;21.73;11.80;;;1.40;99.90;;;;;;4997352;28;20252;-72
2023/02/07 06:41:24;;;;;;;13.50;9.40;;;1.40;99.90;;;;;;4998008;28;20285;-72
2023/02/07 06:43:49;;;;;;;17.87;10.43;;;1.40;99.90;;;;;;5000329;28;20640;-72
2023/02/07 06:46:15;;;;;;;16.83;9.70;;;1.40;99.90;;;;;;4996333;28;20218;-72
2023/02/07 06:48:40;;;;;;;17.43;10.50;;;1.40;99.90;;;;;;4996481;28;20185;-72
2023/02/07 06:51:06;;;;;;;17.03;10.30;;;1.50;99.90;;;;;;5000302;28;20180;-72
2023/02/07 06:53:32;;;;;;;20.03;12.90;;;1.50;99.90;;;;;;5018639;28;20185;-72
2023/02/07 06:55:57;;;;;;;16.63;11.10;;;1.40;99.90;;;;;;5004629;28;20306;-72
2023/02/07 06:58:23;;;;;;;14.00;9.57;;;1.40;99.90;;;;;;5002741;28;20191;-72
2023/02/07 07:00:48;;;;;;;15.27;10.23;;;1.40;99.90;;;;;;5004452;28;20268;-72
2023/02/07 07:03:16;;;;;;;14.57;9.77;;;1.30;99.90;;;;;;4999572;28;20547;-72
2023/02/07 07:05:43;;;;;;;19.20;10.83;;;1.30;99.90;;;;;;4999622;28;20188;-71
2023/02/07 07:08:10;;;;;;;18.20;10.37;;;1.30;99.90;;;;;;4999188;28;20438;-71
2023/02/07 07:10:35;;;;;;;15.30;9.70;;;1.30;99.90;;;;;;4995191;28;20480;-71
2023/02/07 07:13:01;;;;;;;17.60;10.87;;;1.30;99.90;;;;;;4997834;28;20431;-72
2023/02/07 07:15:27;;;;;;;13.10;9.00;;;1.30;99.90;;;;;;4998440;28;20216;-73
2023/02/07 07:17:52;;;;;;;15.90;10.73;;;1.30;99.90;;;;;;5003973;28;20253;-71
2023/02/07 07:20:18;;;;;;;18.23;9.53;;;1.30;99.90;;;;;;5000637;28;20204;-71
2023/02/07 07:22:43;;;;;;;17.20;8.57;;;1.30;99.90;;;;;;5002667;28;20226;-71
2023/02/07 07:25:10;;;;;;;16.20;9.40;;;1.30;99.90;;;;;;5001576;28;20664;-71
2023/02/07 07:27:36;;;;;;;22.90;10.83;;;1.40;99.90;;;;;;5002231;28;20189;-71
2023/02/07 07:30:03;;;;;;;18.83;11.60;;;1.40;99.90;;;;;;5007961;28;20439;-72
2023/02/07 07:32:29;;;;;;;20.30;11.30;;;1.40;99.90;;;;;;4995802;28;20233;-72
2023/02/07 07:34:54;;;;;;;21.70;12.20;;;1.40;99.90;;;;;;4995404;28;20483;-72
2023/02/07 07:37:20;;;;;;;19.47;12.00;;;1.40;99.90;;;;;;4994473;28;20546;-72
2023/02/07 07:39:45;;;;;;;26.30;13.03;;;1.30;99.90;;;;;;4994910;28;20181;-72
2023/02/07 07:42:11;;;;;;;24.43;12.70;;;1.30;99.90;;;;;;5002441;28;20191;-72
2023/02/07 07:44:37;;;;;;;32.70;12.03;;;1.30;99.90;;;;;;4998248;28;20215;-72
2023/02/07 07:47:02;;;;;;;16.87;10.40;;;1.30;99.90;;;;;;5000208;28;20283;-72
2023/02/07 07:49:28;;;;;;;21.30;10.97;;;1.30;99.90;;;;;;4999917;28;20185;-72
2023/02/07 07:51:53;;;;;;;24.23;12.57;;;1.30;99.90;;;;;;5002076;28;20187;-72
2023/02/07 07:54:19;;;;;;;21.90;13.70;;;1.40;99.90;;;;;;5001295;28;20201;-72
2023/02/07 07:56:45;;;;;;;17.80;12.13;;;1.40;99.90;;;;;;5000776;28;20196;-72
2023/02/07 07:59:10;;;;;;;21.43;13.10;;;1.50;99.90;;;;;;5006178;28;20859;-72
2023/02/07 08:01:36;;;;;;;20.23;13.03;;;1.60;99.90;;;;;;4995623;28;20605;-74
2023/02/07 08:04:02;;;;;;;22.97;12.43;;;1.80;99.90;;;;;;4994035;28;20184;-72
2023/02/07 08:06:28;;;;;;;17.63;11.63;;;2.00;99.90;;;;;;4994183;28;20284;-72
2023/02/07 08:08:55;;;;;;;13.40;10.10;;;2.30;99.90;;;;;;4998248;28;20432;-72
2023/02/07 08:11:21;;;;;;;16.93;11.67;;;2.50;99.90;;;;;;5000842;28;20957;-72
2023/02/07 08:13:47;;;;;;;18.40;11.20;;;2.70;99.90;;;;;;4999066;28;20434;-72
2023/02/07 08:16:13;;;;;;;18.73;10.57;;;2.90;99.90;;;;;;5000777;28;20476;-72
2023/02/07 08:18:39;;;;;;;17.20;11.07;;;3.00;99.90;;;;;;5001970;28;20439;-72
2023/02/07 08:21:05;;;;;;;20.70;10.50;;;3.10;99.90;;;;;;5001182;28;20187;-72
2023/02/07 08:23:30;;;;;;;15.77;11.53;;;3.20;99.90;;;;;;4999474;28;20544;-72
2023/02/07 08:25:56;;;;;;;16.83;10.10;;;3.40;99.90;;;;;;5001931;28;20430;-72
2023/02/07 08:28:22;;;;;;;15.67;9.80;;;3.50;99.90;;;;;;5002784;28;20192;-72
2023/02/07 08:30:47;;;;;;;18.40;12.13;;;3.60;99.90;;;;;;4994154;28;20227;-72
2023/02/07 08:33:14;;;;;;;20.30;11.40;;;3.60;99.90;;;;;;4993802;28;20656;-72
2023/02/07 08:35:40;;;;;;;13.80;8.80;;;3.70;99.90;;;;;;4994750;28;20216;-72
2023/02/07 08:38:06;;;;;;;10.63;9.10;;;3.80;99.90;;;;;;4999180;28;20443;-71
2023/02/07 08:40:32;;;;;;;12.33;7.93;;;3.80;99.90;;;;;;5002292;28;20461;-71
2023/02/07 08:42:58;;;;;;;14.70;8.60;;;3.80;99.90;;;;;;5000031;28;20298;-72
2023/02/07 08:45:24;;;;;;;16.63;10.10;;;3.90;99.90;;;;;;4999851;28;20516;-71
2023/02/07 08:47:49;;;;;;;13.97;10.70;;;4.10;99.90;;;;;;5000239;28;20439;-72
2023/02/07 08:50:16;;;;;;;11.90;10.50;;;4.30;99.90;;;;;;4999525;28;20238;-72
2023/02/07 08:52:42;;;;;;;13.93;10.77;;;4.50;99.90;;;;;;4997741;28;20181;-72
2023/02/07 08:55:08;;;;;;;21.37;10.57;;;4.70;99.90;;;;;;5000657;28;20889;-72
2023/02/07 08:57:34;;;;;;;17.50;10.90;;;4.80;99.90;;;;;;5001460;28;20443;-71
2023/02/07 09:00:00;;;;;;;18.33;12.03;;;4.90;99.90;;;;;;4998342;28;20501;-72
2023/02/07 09:02:26;;;;;;;10.07;8.30;;;5.00;99.90;;;;;;4994341;28;20192;-72
2023/02/07 09:04:52;;;;;;;11.27;8.27;;;5.10;99.90;;;;;;5001114;28;20438;-72
2023/02/07 09:07:18;;;;;;;12.60;7.73;;;5.20;99.90;;;;;;5009848;28;20439;-71
2023/02/07 09:09:44;;;;;;;9.57;7.53;;;5.20;99.90;;;;;;5002530;28;20193;-72
2023/02/07 09:12:11;;;;;;;14.83;9.07;;;5.30;99.90;;;;;;5005213;28;20471;-72
2023/02/07 09:14:37;;;;;;;9.30;7.30;;;5.40;99.90;;;;;;5003356;28;20465;-72
2023/02/07 09:17:04;;;;;;;7.60;6.07;;;5.50;99.90;;;;;;5002105;28;20459;-73
2023/02/07 09:19:30;;;;;;;10.17;6.40;;;5.60;99.90;;;;;;5003431;28;20427;-72
2023/02/07 09:21:55;;;;;;;13.17;8.87;;;5.70;99.90;;;;;;5000355;28;20492;-71
2023/02/07 09:24:21;;;;;;;8.67;7.33;;;5.80;99.90;;;;;;4997714;28;20195;-64
2023/02/07 09:26:47;;;;;;;10.63;7.77;;;5.90;99.90;;;;;;4995690;28;20647;-64
2023/02/07 09:29:13;;;;;;;14.43;8.00;;;6.00;99.90;;;;;;4999612;28;20484;-64
2023/02/07 09:31:40;;;;;;;13.17;7.07;;;6.10;99.90;;;;;;4999951;28;20231;-71
2023/02/07 09:34:06;;;;;;;9.90;7.20;;;6.20;99.90;;;;;;5003377;28;20454;-64
2023/02/07 09:36:32;;;;;;;12.80;5.90;;;6.20;99.90;;;;;;5001948;28;20810;-64
2023/02/07 09:38:58;;;;;;;8.03;6.30;;;6.30;99.90;;;;;;5004652;28;20436;-64
2023/02/07 09:41:42;;;;;;;8.13;5.73;;;6.30;99.90;;;;;;5003274;28;20180;-67
2023/02/07 09:44:24;;;;;;;7.27;4.70;;;6.40;99.90;;;;;;5000830;28;20489;-66
2023/02/07 09:46:57;;;;;;;6.53;5.87;;;6.40;99.90;;;;;;5000789;28;20456;-67
2023/02/07 09:49:26;;;;;;;6.83;5.60;;;6.40;99.90;;;;;;5002690;28;20438;-67
2023/02/07 09:51:53;;;;;;;7.20;5.67;;;6.50;99.90;;;;;;4995721;28;20505;-66
2023/02/07 09:54:49;;;;;;;20.10;6.73;;;6.50;99.90;;;;;;4992992;28;20437;-66
2023/02/07 09:57:27;;;;;;;7.00;5.50;;;6.40;99.90;;;;;;4999029;28;20493;-67
2023/02/07 10:00:30;;;;;;;5.50;4.70;;;6.40;99.90;;;;;;4996925;28;20442;-67
2023/02/07 10:03:19;;;;;;;5.60;5.03;;;6.50;99.90;;;;;;4996394;28;20941;-66
2023/02/07 10:05:54;;;;;;;5.73;5.07;;;6.40;99.90;;;;;;5005334;28;20816;-66
2023/02/07 10:08:19;;;;;;;5.83;5.20;;;6.50;99.90;;;;;;5004220;28;20423;-65
2023/02/07 10:11:08;;;;;;;5.90;5.00;;;6.40;99.90;;;;;;5003835;28;20441;-66
2023/02/07 10:13:39;;;;;;;7.83;5.50;;;6.30;99.90;;;;;;4996219;28;20690;-66
2023/02/07 10:16:26;;;;;;;6.63;4.60;;;6.30;99.90;;;;;;4998435;28;20997;-65
2023/02/07 10:19:10;;;;;;;6.50;5.13;;;6.50;99.90;;;;;;4992038;28;20983;-66
2023/02/07 10:21:52;;;;;;;6.10;4.53;;;6.50;99.90;;;;;;4996506;28;20428;-65
2023/02/07 10:24:53;;;;;;;7.17;5.37;;;6.50;99.90;;;;;;4998824;28;20802;-66
2023/02/07 10:27:31;;;;;;;6.07;4.73;;;6.40;99.90;;;;;;4995331;28;20799;-66
2023/02/07 10:30:14;;;;;;;9.17;4.50;;;6.40;99.90;;;;;;5004555;28;20440;-65
2023/02/07 10:32:41;;;;;;;7.97;6.07;;;6.30;99.90;;;;;;5002261;28;20472;-66
2023/02/07 10:35:15;;;;;;;6.80;6.07;;;6.40;99.90;;;;;;5004483;28;20473;-66
2023/02/07 10:37:44;;;;;;;6.70;5.37;;;6.40;99.90;;;;;;5001442;28;20473;-65
2023/02/07 10:40:21;;;;;;;6.57;5.87;;;6.40;99.90;;;;;;5003157;28;20798;-66
2023/02/07 10:42:53;;;;;;;7.93;6.00;;;6.40;99.90;;;;;;4999787;28;20434;-65
2023/02/07 10:45:18;;;;;;;8.33;5.77;;;6.40;99.90;;;;;;4997079;28;20432;-64
2023/02/07 10:47:44;;;;;;;8.87;6.20;;;6.50;99.90;;;;;;4996391;28;20447;-65
2023/02/07 10:50:15;;;;;;;8.67;5.63;;;6.60;99.90;;;;;;4994364;28;20190;-64
2023/02/07 10:52:48;;;;;;;7.27;5.73;;;6.60;99.90;;;;;;4995934;28;20435;-64
2023/02/07 10:55:19;;;;;;;6.40;5.00;;;6.50;99.90;;;;;;4997559;28;20913;-64
2023/02/07 10:57:55;;;;;;;6.97;5.60;;;6.60;99.90;;;;;;5002306;28;20446;-64
2023/02/07 11:00:27;;;;;;;7.60;5.30;;;6.70;99.90;;;;;;5001335;28;20538;-64
2023/02/07 11:03:02;;;;;;;9.53;5.27;;;6.80;99.90;;;;;;5001457;28;20447;-64
2023/02/07 11:05:30;;;;;;;6.03;5.10;;;6.90;99.90;;;;;;5001695;28;20439;-64
2023/02/07 11:07:58;;;;;;;6.30;5.00;;;6.80;99.90;;;;;;5002867;28;20972;-64
2023/02/07 11:10:32;;;;;;;5.53;4.93;;;7.00;99.90;;;;;;4998885;28;20804;-64
2023/02/07 11:12:59;;;;;;;10.60;5.50;;;7.10;99.90;;;;;;4995590;28;20439;-64
2023/02/07 11:15:48;;;;;;;10.73;5.20;;;7.10;99.90;;;;;;4993518;28;20484;-64
2023/02/07 11:18:36;;;;;;;6.13;5.50;;;7.10;99.90;;;;;;4991395;28;20515;-65
2023/02/07 11:21:17;;;;;;;4.80;4.17;;;7.00;99.90;;;;;;4999034;28;20443;-64
2023/02/07 11:23:43;;;;;;;6.20;5.47;;;7.00;99.90;;;;;;4996983;28;20435;-64
2023/02/07 11:26:09;;;;;;;8.63;4.60;;;7.10;99.90;;;;;;4999591;28;20439;-64
2023/02/07 11:28:35;;;;;;;10.53;4.80;;;7.30;99.90;;;;;;5003167;28;20526;-64
2023/02/07 11:31:13;;;;;;;5.40;4.30;;;7.30;99.90;;;;;;5001750;28;20232;-63
2023/02/07 11:33:39;;;;;;;7.20;4.93;;;7.30;99.90;;;;;;5003527;28;20527;-64
2023/02/07 11:36:19;;;;;;;6.63;5.50;;;7.30;99.90;;;;;;5005998;28;20605;-64
2023/02/07 11:38:48;;;;;;;5.53;4.60;;;7.40;99.90;;;;;;4994451;28;20185;-63
2023/02/07 11:41:24;;;;;;;5.37;4.87;;;7.50;99.90;;;;;;4994628;28;20522;-63
2023/02/07 11:43:58;;;;;;;7.50;5.30;;;7.60;99.90;;;;;;4995498;28;20479;-63
2023/02/07 11:46:40;;;;;;;7.13;5.60;;;7.60;99.80;;;;;;4998468;28;20439;-63
2023/02/07 11:49:17;;;;;;;7.50;5.90;;;7.70;99.70;;;;;;5000959;28;20514;-63
2023/02/07 11:51:43;;;;;;;7.20;5.63;;;7.80;99.90;;;;;;4997238;28;20426;-63
2023/02/07 11:54:11;;;;;;;8.93;6.50;;;7.90;99.40;;;;;;4999591;28;20431;-63
2023/02/07 11:56:40;;;;;;;11.93;6.40;;;8.10;99.40;;;;;;4997867;28;20296;-63
2023/02/07 11:59:17;;;;;;;7.37;6.50;;;8.30;99.30;;;;;;4999965;28;20614;-66
2023/02/07 12:01:48;;;;;;;13.43;7.57;;;8.40;97.50;;;;;;4998512;28;20443;-66
2023/02/07 12:04:20;;;;;;;9.63;7.43;;;8.50;96.00;;;;;;4999103;28;20435;-66
2023/02/07 12:06:51;;;;;;;7.67;6.63;;;8.70;95.70;;;;;;4994112;28;20447;-65
2023/02/07 12:09:32;;;;;;;10.20;6.70;;;8.90;96.20;;;;;;4995307;28;20436;-66
2023/02/07 12:12:00;;;;;;;9.77;7.73;;;9.10;94.40;;;;;;4994526;28;20794;-66
2023/02/07 12:14:48;;;;;;;9.37;7.07;;;9.30;91.90;;;;;;4995602;28;20436;-66
2023/02/07 12:17:25;;;;;;;8.50;6.77;;;9.40;93.10;;;;;;4997934;28;20444;-66
2023/02/07 12:20:27;;;;;;;8.27;6.20;;;9.40;90.90;;;;;;4999910;28;20430;-66
2023/02/07 12:23:02;;;;;;;8.37;7.20;;;9.40;92.10;;;;;;5001319;28;21229;-66
2023/02/07 12:25:35;;;;;;;8.20;6.00;;;9.40;92.30;;;;;;5001023;28;20543;-65
2023/02/07 12:28:11;;;;;;;7.80;5.80;;;9.40;91.70;;;;;;5001345;28;20419;-66
2023/02/07 12:30:45;;;;;;;13.10;8.23;;;9.40;91.10;;;;;;4998384;28;20518;-66
2023/02/07 12:33:16;;;;;;;9.43;6.20;;;9.40;91.70;;;;;;4997429;28;20486;-66
2023/02/07 12:36:13;;;;;;;7.57;6.27;;;9.30;90.60;;;;;;4996436;28;20880;-67
2023/02/07 12:39:24;;;;;;;8.97;6.33;;;9.20;90.90;;;;;;4990051;28;20523;-65
2023/02/07 12:42:00;;;;;;;7.57;5.70;;;9.10;91.20;;;;;;4993672;28;20475;-66
2023/02/07 12:44:33;;;;;;;7.80;5.93;;;9.00;92.00;;;;;;5000076;28;20463;-67
2023/02/07 12:47:29;;;;;;;16.57;5.30;;;9.00;91.20;;;;;;5001363;28;20431;-66
2023/02/07 12:50:10;;;;;;;7.70;5.23;;;8.90;92.60;;;;;;5000073;28;20443;-65
2023/02/07 12:52:35;;;;;;;7.00;5.53;;;8.90;91.00;;;;;;5003258;28;20466;-65
2023/02/07 12:55:14;;;;;;;6.97;6.00;;;8.70;90.90;;;;;;4999921;28;20560;-65
2023/02/07 12:58:14;;;;;;;5.93;4.67;;;8.70;91.40;;;;;;4998871;28;20176;-67
2023/02/07 13:00:48;;;;;;;5.80;5.20;;;8.70;91.00;;;;;;5001312;28;20435;-66
2023/02/07 13:03:40;;;;;;;6.93;5.33;;;8.40;91.00;;;;;;4995925;28;20942;-66
2023/02/07 13:06:51;;;;;;;7.70;5.40;;;8.20;92.20;;;;;;4993230;28;20432;-66
2023/02/07 13:09:36;;;;;;;6.50;5.50;;;8.30;93.00;;;;;;4976903;28;21062;-66
2023/02/07 13:12:16;;;;;;;6.70;5.90;;;8.40;92.70;;;;;;4997730;28;20436;-66
2023/02/07 13:15:18;;;;;;;7.33;5.10;;;8.50;92.70;;;;;;5002508;28;20462;-66
2023/02/07 13:18:02;;;;;;;5.27;4.17;;;8.70;92.00;;;;;;5004212;28;20478;-73
2023/02/07 13:20:55;;;;;;;6.93;5.60;;;8.80;92.10;;;;;;5000751;28;20504;-73
2023/02/07 13:23:28;;;;;;;12.18;6.75;;;8.90;91.80;;;;;;5001392;28;20510;-71
2023/02/07 13:25:59;;;;;;;7.17;5.60;;;9.10;96.20;;;;;;5000101;28;20525;-71
2023/02/07 13:28:26;;;;;;;6.00;5.40;;;9.20;91.60;;;;;;5001224;28;20430;-71
2023/02/07 13:30:52;;;;;;;5.23;4.67;;;9.20;90.90;;;;;;4999112;28;20851;-71
2023/02/07 13:33:38;;;;;;;6.90;4.87;;;9.20;90.00;;;;;;4995390;28;20432;-71
2023/02/07 13:36:16;;;;;;;6.13;5.10;;;9.20;90.30;;;;;;4994227;28;20991;-71
2023/02/07 13:39:07;;;;;;;6.33;5.73;;;9.10;89.90;;;;;;4996540;28;20506;-71
2023/02/07 13:41:49;;;;;;;8.27;5.20;;;9.20;89.40;;;;;;5004212;28;20522;-71
2023/02/07 13:44:20;;;;;;;5.80;4.93;;;9.10;90.30;;;;;;4999232;28;20435;-71
2023/02/07 13:47:01;;;;;;;7.17;5.40;;;9.20;91.10;;;;;;5005053;28;20459;-73
2023/02/07 13:49:41;;;;;;;8.37;5.90;;;9.10;88.00;;;;;;5001166;28;20432;-71
2023/02/07 13:52:11;;;;;;;6.67;5.20;;;9.10;88.20;;;;;;5000965;28;20439;-71
2023/02/07 13:54:51;;;;;;;6.47;5.40;;;9.00;89.10;;;;;;5000870;28;21014;-70
2023/02/07 14:00:22;;;;;;;10.70;5.47;;;8.80;90.50;;;;;;4996119;28;20546;-71
2023/02/07 14:03:05;;;;;;;8.60;5.30;;;8.70;90.90;;;;;;4997672;28;20483;-71
2023/02/07 14:05:33;;;;;;;8.20;5.73;;;8.50;92.40;;;;;;4999115;28;20434;-72
2023/02/07 14:08:05;;;;;;;5.83;4.97;;;8.50;92.80;;;;;;5004076;28;20507;-71
2023/02/07 14:10:36;;;;;;;9.07;6.07;;;8.40;92.80;;;;;;5008518;28;20465;-71
2023/02/07 14:13:02;;;;;;;7.30;5.47;;;8.40;92.90;;;;;;5003129;28;20497;-70
2023/02/07 14:15:29;;;;;;;6.50;5.57;;;8.30;92.70;;;;;;5004243;28;20475;-70
2023/02/07 14:17:58;;;;;;;6.73;5.30;;;8.30;92.90;;;;;;4998421;28;20603;-70
2023/02/07 14:20:36;;;;;;;6.27;5.07;;;8.30;92.00;;;;;;5000410;28;20802;-70
2023/02/07 14:23:18;;;;;;;7.13;5.60;;;8.20;92.50;;;;;;4998491;28;20427;-68
2023/02/07 14:25:45;;;;;;;6.57;5.97;;;8.10;93.10;;;;;;5011620;28;20994;-70
2023/02/07 14:28:30;;;;;;;7.10;5.00;;;8.00;93.10;;;;;;4995652;28;20519;-69
2023/02/07 14:30:59;;;;;;;5.57;4.90;;;8.00;92.80;;;;;;4993703;28;20555;-69
2023/02/07 14:33:35;;;;;;;6.33;5.70;;;7.90;92.60;;;;;;4998902;28;20494;-69
2023/02/07 14:36:13;;;;;;;7.73;6.03;;;7.70;93.40;;;;;;5000341;28;20466;-69
2023/02/07 14:38:39;;;;;;;9.77;5.83;;;7.60;95.00;;;;;;5006528;28;20435;-69
2023/02/07 14:41:09;;;;;;;11.23;6.10;;;7.40;93.60;;;;;;5001231;28;20449;-69
2023/02/07 14:43:46;;;;;;;7.10;5.70;;;7.50;94.50;;;;;;4991148;28;20450;-69
2023/02/07 14:46:24;;;;;;;11.50;6.23;;;7.50;95.50;;;;;;5002895;28;20525;-69
2023/02/07 14:49:06;;;;;;;5.43;4.93;;;7.40;95.50;;;;;;4998283;28;20785;-69
2023/02/07 14:51:41;;;;;;;5.73;5.20;;;7.40;95.00;;;;;;4994895;28;20466;-69
2023/02/07 14:54:31;;;;;;;12.73;6.33;;;7.30;95.10;;;;;;4993842;28;20432;-69
2023/02/07 14:57:20;;;;;;;6.10;5.50;;;7.20;94.80;;;;;;4993381;28;20446;-69
2023/02/07 15:00:00;;;;;;;12.03;6.40;;;7.20;95.40;;;;;;4995505;28;20439;-69
2023/02/07 15:02:30;;;;;;;8.10;5.63;;;7.20;96.30;;;;;;4998542;28;20443;-69